Time;durP1;ratioP1;P1;durP2;ratioP2;P2;SDS_P1;SDS_P2;PMS_P1;PMS_P2;Temp;Humidity;BMP_temperature;BMP_pressure;BME280_temperature;BME280_humidity;BME280_pressure;Samples;Min_cycle;Max_cycle;Signal;HPM_P1;HPM_P2
2023/05/18 00:02:51;;;;;;;34.2;23.1;;;;;;;-132.3;100;77960;;;;
2023/05/18 00:12:51;;;;;;;34.2;23.1;;;;;;;-132.3;100;77960;;;;
2023/05/18 00:23:51;;;;;;;29;20.8;;;;;;;-132.3;100;77960;;;;
2023/05/18 00:33:51;;;;;;;29;20.8;;;;;;;-132.3;100;77960;;;;
2023/05/18 00:43:51;;;;;;;29;20.8;;;;;;;-132.3;100;77960;;;;
2023/05/18 00:53:51;;;;;;;22.3;18.1;;;;;;;-132.3;100;77960;;;;
2023/05/18 01:04:51;;;;;;;22.3;18.1;;;;;;;-132.3;100;77970;;;;
2023/05/18 01:14:51;;;;;;;22.3;18.1;;;;;;;-132.3;100;77980;;;;
2023/05/18 01:25:52;;;;;;;23.3;15.7;;;;;;;-132.3;100;77970;;;;
2023/05/18 01:36:51;;;;;;;23.3;15.7;;;;;;;-132.3;100;77980;;;;
2023/05/18 01:47:51;;;;;;;24.1;17.7;;;;;;;-132.3;100;77980;;;;
2023/05/18 01:57:51;;;;;;;24.1;17.7;;;;;;;-132.3;100;77980;;;;
2023/05/18 02:07:51;;;;;;;24.1;17.7;;;;;;;-132.3;100;77990;;;;
2023/05/18 02:17:56;;;;;;;19.4;13.5;;;;;;;-132.3;100;78000;;;;
2023/05/18 02:28:51;;;;;;;19.4;13.5;;;;;;;-132.3;100;78010;;;;
2023/05/18 02:38:51;;;;;;;19.4;13.5;;;;;;;-132.3;100;78020;;;;
2023/05/18 02:48:51;;;;;;;12.5;8.2;;;;;;;-132.3;100;78040;;;;
2023/05/18 02:59:51;;;;;;;12.5;8.2;;;;;;;-132.3;100;78050;;;;
2023/05/18 03:10:51;;;;;;;12.5;8.2;;;;;;;-132.3;0;78050;;;;
2023/05/18 03:20:52;;;;;;;14;8.1;;;;;;;-132.3;0;78060;;;;
2023/05/18 03:31:51;;;;;;;14;8.1;;;;;;;-132.3;0;78070;;;;
2023/05/18 03:41:51;;;;;;;14;8.1;;;;;;;-132.3;0;78080;;;;
2023/05/18 03:51:53;;;;;;;16.2;8;;;;;;;-132.3;0;78080;;;;
2023/05/18 04:01:52;;;;;;;16.2;8;;;;;;;-132.3;0;78100;;;;
2023/05/18 04:12:51;;;;;;;16.2;8;;;;;;;-132.3;0;78110;;;;
2023/05/18 04:22:51;;;;;;;12.6;9.1;;;;;;;-132.3;0;78170;;;;
2023/05/18 04:33:51;;;;;;;12.6;9.1;;;;;;;-132.3;0;78220;;;;
2023/05/18 04:43:51;;;;;;;12.6;9.1;;;;;;;-132.3;0;78250;;;;
2023/05/18 04:54:51;;;;;;;13.5;6.4;;;;;;;-132.3;0;78300;;;;
2023/05/18 05:04:51;;;;;;;13.5;6.4;;;;;;;-132.3;0;78300;;;;
2023/05/18 05:14:51;;;;;;;13.5;6.4;;;;;;;-132.3;0;78320;;;;
2023/05/18 05:24:51;;;;;;;8.3;3.9;;;;;;;-132.3;0;78330;;;;
2023/05/18 05:35:51;;;;;;;8.3;3.9;;;;;;;-132.3;0;78310;;;;
2023/05/18 05:46:51;;;;;;;7.1;4.3;;;;;;;-132.3;0;78310;;;;
2023/05/18 05:57:51;;;;;;;7.1;4.3;;;;;;;-132.3;0;78280;;;;
2023/05/18 06:08:51;;;;;;;7.1;4.3;;;;;;;-132.3;0;78260;;;;
2023/05/18 06:18:52;;;;;;;10.9;4.2;;;;;;;-132.3;0;78270;;;;
2023/05/18 06:29:52;;;;;;;10.9;4.2;;;;;;;-132.3;0;78280;;;;
2023/05/18 06:40:51;;;;;;;10.9;4.2;;;;;;;-132.3;0;78270;;;;
2023/05/18 06:51:51;;;;;;;5.4;2.7;;;;;;;-132.3;0;78210;;;;
2023/05/18 07:01:51;;;;;;;5.4;2.7;;;;;;;-132.3;0;78210;;;;
2023/05/18 07:12:52;;;;;;;5.4;2.7;;;;;;;-132.3;0;78190;;;;
2023/05/18 07:23:52;;;;;;;6.3;2.7;;;;;;;-132.3;0;78180;;;;
2023/05/18 07:33:52;;;;;;;6.3;2.7;;;;;;;-132.3;0;78190;;;;
2023/05/18 07:44:52;;;;;;;5.6;2.3;;;;;;;-132.3;0;78190;;;;
2023/05/18 07:49:53;;;;;;;5.6;2.3;;;;;;;-132.3;0;78210;;;;
2023/05/18 07:59:52;;;;;;;5.6;2.3;;;;;;;-132.3;0;78160;;;;
2023/05/18 08:09:52;;;;;;;5.6;2.3;;;;;;;-132.3;0;78140;;;;
2023/05/18 08:19:53;;;;;;;4.5;1.9;;;;;;;-132.3;0;78140;;;;
2023/05/18 08:29:53;;;;;;;4.5;1.9;;;;;;;-132.3;0;78150;;;;
2023/05/18 08:40:53;;;;;;;4.5;1.9;;;;;;;-132.3;0;78140;;;;
2023/05/18 08:51:52;;;;;;;7.8;4.9;;;;;;;-132.3;0;78130;;;;
2023/05/18 09:02:53;;;;;;;7.8;4.9;;;;;;;-132.3;0;78120;;;;
2023/05/18 09:12:52;;;;;;;7.8;4.9;;;;;;;-132.3;0;78070;;;;
2023/05/18 09:23:53;;;;;;;7.7;2.8;;;;;;;-132.3;0;78070;;;;
2023/05/18 09:33:52;;;;;;;7.7;2.8;;;;;;;-132.3;0;78020;;;;
2023/05/18 09:44:52;;;;;;;8.8;3.6;;;;;;;-132.3;0;78010;;;;
2023/05/18 09:54:52;;;;;;;8.8;3.6;;;;;;;-132.3;0;78040;;;;
2023/05/18 10:05:53;;;;;;;8.8;3.6;;;;;;;-132.3;0;78070;;;;
2023/05/18 10:15:53;;;;;;;4.6;2.5;;;;;;;-132.3;0;78090;;;;
2023/05/18 10:25:53;;;;;;;4.6;2.5;;;;;;;-132.3;0;78090;;;;
2023/05/18 10:36:53;;;;;;;4.6;2.5;;;;;;;-132.3;0;78050;;;;
2023/05/18 10:46:53;;;;;;;5.6;2.2;;;;;;;-132.3;0;78100;;;;
2023/05/18 10:57:53;;;;;;;5.6;2.2;;;;;;;-132.3;0;78080;;;;
2023/05/18 11:07:53;;;;;;;5.6;2.2;;;;;;;-132.3;0;78040;;;;
2023/05/18 11:17:53;;;;;;;5.7;2.7;;;;;;;-132.3;0;78070;;;;
2023/05/18 11:28:53;;;;;;;5.7;2.7;;;;;;;-132.3;0;78100;;;;
2023/05/18 11:38:53;;;;;;;5.7;2.7;;;;;;;-132.3;0;78090;;;;
2023/05/18 11:49:53;;;;;;;4.8;2.6;;;;;;;-132.3;0;78100;;;;
2023/05/18 12:00:53;;;;;;;4.8;2.6;;;;;;;-132.3;0;78120;;;;
2023/05/18 12:10:53;;;;;;;4.8;2.6;;;;;;;-132.3;0;78110;;;;
2023/05/18 12:21:53;;;;;;;6.8;3.3;;;;;;;-132.3;0;78080;;;;
2023/05/18 12:31:53;;;;;;;6.8;3.3;;;;;;;-132.3;0;78070;;;;
2023/05/18 12:41:53;;;;;;;6.8;3.3;;;;;;;-132.3;0;78040;;;;
2023/05/18 12:52:53;;;;;;;6.6;3.5;;;;;;;-132.3;0;77990;;;;
2023/05/18 13:03:53;;;;;;;6.6;3.5;;;;;;;-132.3;0;77950;;;;
2023/05/18 13:14:53;;;;;;;7;3;;;;;;;-132.3;0;77960;;;;
2023/05/18 13:25:53;;;;;;;7;3;;;;;;;-132.3;0;77940;;;;
2023/05/18 13:36:53;;;;;;;7;3;;;;;;;-132.3;0;77970;;;;
2023/05/18 13:47:53;;;;;;;7.2;3.8;;;;;;;-132.3;0;78010;;;;
2023/05/18 13:57:53;;;;;;;7.2;3.8;;;;;;;-132.3;0;78040;;;;
2023/05/18 14:07:53;;;;;;;7.2;3.8;;;;;;;-132.3;0;78050;;;;
2023/05/18 14:17:53;;;;;;;10.7;4.1;;;;;;;-132.3;0;78050;;;;
2023/05/18 14:28:53;;;;;;;10.7;4.1;;;;;;;-132.3;0;78060;;;;
2023/05/18 14:38:53;;;;;;;10.7;4.1;;;;;;;-132.3;0;78100;;;;
2023/05/18 14:49:53;;;;;;;6.9;3.5;;;;;;;-132.3;0;78120;;;;
2023/05/18 14:59:53;;;;;;;6.9;3.5;;;;;;;-132.3;0;78130;;;;
2023/05/18 15:09:54;;;;;;;6.9;3.5;;;;;;;-132.3;0;78130;;;;
2023/05/18 15:20:53;;;;;;;10;5.1;;;;;;;-132.3;0;78130;;;;
2023/05/18 15:31:54;;;;;;;10;5.1;;;;;;;-132.3;0;78130;;;;
2023/05/18 15:41:53;;;;;;;10;5.1;;;;;;;-132.3;0;78150;;;;
2023/05/18 15:51:53;;;;;;;16.1;8.9;;;;;;;-132.3;0;78150;;;;
2023/05/18 16:01:53;;;;;;;16.1;8.9;;;;;;;-132.3;0;78180;;;;
2023/05/18 16:12:53;;;;;;;16.1;8.9;;;;;;;-132.3;0;78180;;;;
2023/05/18 16:22:53;;;;;;;12.1;6.5;;;;;;;-132.3;0;78190;;;;
2023/05/18 16:32:53;;;;;;;12.1;6.5;;;;;;;-132.3;0;78190;;;;
2023/05/18 16:42:53;;;;;;;12.1;6.5;;;;;;;-132.3;0;78200;;;;
2023/05/18 16:52:53;;;;;;;17.4;10.3;;;;;;;-132.3;0;78200;;;;
2023/05/18 17:02:53;;;;;;;17.4;10.3;;;;;;;-132.3;0;78220;;;;
2023/05/18 17:12:54;;;;;;;17.4;10.3;;;;;;;-132.3;0;78240;;;;
2023/05/18 17:23:53;;;;;;;19.6;12;;;;;;;-132.3;0;78270;;;;
2023/05/18 17:45:06;;;;;;;17.9;12.6;;;;;;;-132.3;0;78290;;;;
2023/05/18 17:56:06;;;;;;;17.9;12.6;;;;;;;-132.3;0;78300;;;;
2023/05/18 18:07:06;;;;;;;17.9;12.6;;;;;;;-132.3;0;78320;;;;
2023/05/18 18:17:06;;;;;;;11.3;6.9;;;;;;;-132.3;0;78340;;;;
2023/05/18 18:28:06;;;;;;;11.3;6.9;;;;;;;-132.3;0;78350;;;;
2023/05/18 18:38:06;;;;;;;11.3;6.9;;;;;;;-132.3;0;78370;;;;
2023/05/18 18:49:06;;;;;;;11.5;5.8;;;;;;;-132.3;0;78370;;;;
2023/05/18 19:00:09;;;;;;;11.5;5.8;;;;;;;-132.3;0;78380;;;;
2023/05/18 19:10:06;;;;;;;11.5;5.8;;;;;;;-132.3;0;78380;;;;
2023/05/18 19:20:06;;;;;;;8.3;5.2;;;;;;;-132.3;0;78380;;;;
2023/05/18 19:30:06;;;;;;;8.3;5.2;;;;;;;-132.3;0;78380;;;;
2023/05/18 19:41:06;;;;;;;8.3;5.2;;;;;;;-132.3;0;78380;;;;
2023/05/18 19:51:06;;;;;;;19.2;10.3;;;;;;;-132.3;0;78360;;;;
2023/05/18 20:02:06;;;;;;;19.2;10.3;;;;;;;-132.3;0;78370;;;;
2023/05/18 20:12:06;;;;;;;19.2;10.3;;;;;;;-132.3;0;78370;;;;
2023/05/18 20:23:06;;;;;;;12.2;8.4;;;;;;;-132.3;0;78390;;;;
2023/05/18 20:33:06;;;;;;;12.2;8.4;;;;;;;-132.3;0;78390;;;;
2023/05/18 20:44:09;;;;;;;13.8;8.7;;;;;;;-132.3;0;78390;;;;
2023/05/18 20:54:06;;;;;;;13.8;8.7;;;;;;;-132.3;0;78390;;;;
2023/05/18 21:05:06;;;;;;;13.8;8.7;;;;;;;-132.3;0;78390;;;;
2023/05/18 21:15:06;;;;;;;11.9;6.3;;;;;;;-132.3;0;78380;;;;
2023/05/18 21:26:06;;;;;;;11.9;6.3;;;;;;;-132.3;0;78370;;;;
2023/05/18 21:36:08;;;;;;;11.9;6.3;;;;;;;-132.3;0;78370;;;;
2023/05/18 21:47:06;;;;;;;10.6;6.9;;;;;;;-132.3;0;78370;;;;
2023/05/18 21:57:06;;;;;;;10.6;6.9;;;;;;;-132.3;0;78360;;;;
2023/05/18 22:08:06;;;;;;;10.6;6.9;;;;;;;-132.3;0;78360;;;;
2023/05/18 22:18:06;;;;;;;10.5;6.1;;;;;;;-132.3;0;78340;;;;
2023/05/18 22:29:06;;;;;;;10.5;6.1;;;;;;;-132.3;0;78340;;;;
2023/05/18 22:39:07;;;;;;;10.5;6.1;;;;;;;-132.3;0;78350;;;;
2023/05/18 22:49:06;;;;;;;12.9;6.3;;;;;;;-132.3;0;78350;;;;
2023/05/18 23:00:06;;;;;;;12.9;6.3;;;;;;;-132.3;0;78380;;;;
2023/05/18 23:11:06;;;;;;;12.9;6.3;;;;;;;-132.3;0;78380;;;;
2023/05/18 23:22:06;;;;;;;8.8;5;;;;;;;-132.3;0;78380;;;;
2023/05/18 23:32:06;;;;;;;8.8;5;;;;;;;-132.3;0;78370;;;;
2023/05/18 23:43:06;;;;;;;8.8;5;;;;;;;-132.3;0;78370;;;;
2023/05/18 23:53:06;;;;;;;9.4;6;;;;;;;-132.3;0;78360;;;;
